Truxton, New York
Current Conditions -  °F | °C
As of 9:55 PM on Friday 21 Nov 2014 (Local Time) from KN03 Reporting Station
Overcast Overcast  
Wind Chill: 14°   Ceiling: 3100
Heat Index: 14°   Visibility: 10mi
Dew Point: 14°   Wind: 0mph
Humidity: 100%   Direction: NA
Pressure: 30.41"   Gusts: NA
Location:  42.71°N, 76.03°W
Report Text: KN03 220255Z AUTO 00000KT 10SM BKN031 OVC040 M10/M10 A3041 RMK AO2
Loading
Personal Weather Stations






























Interactive Weather Map New forecast layout! Learn more

10-Day Weather Forecast

Advertisements
Track Severe Weather on mobile